Glencove, Washington
Current Conditions -  °F | °C
As of 11:53 AM on Wednesday 26 Nov 2014 (Local Time) from KTIW Reporting Station
Overcast Overcast  
Wind Chill: 14°   Ceiling: 5000
Heat Index: 14°   Visibility: 10mi
Dew Point: 11°   Wind: 9mph
Humidity: 83%   Direction: 200°SSW
Pressure: 30.09"   Gusts: NA
Location:  47.2986°N, 122.616°W
Report Text: KTIW 261953Z 20008KT 10SM SCT039 OVC050 14/11 A3009 RMK AO2 SLP188 T01390111
Loading
Personal Weather Stations






























Interactive Weather Map New forecast layout! Learn more

10-Day Weather Forecast

Advertisements
Track Severe Weather on mobile